createdAt,value
2023-01-20T00:02:28.536Z,26.85
2023-01-20T00:05:14.313Z,36.10
2023-01-20T00:08:00.038Z,33.78
2023-01-20T00:10:45.527Z,32.67
2023-01-20T00:13:31.264Z,37.90
2023-01-20T00:16:16.986Z,27.23
2023-01-20T00:19:02.453Z,33.47
2023-01-20T00:21:47.818Z,34.17
2023-01-20T00:24:33.250Z,34.53
2023-01-20T00:27:20.388Z,35.58
2023-01-20T00:30:06.611Z,35.53
2023-01-20T00:32:52.389Z,34.75
2023-01-20T00:35:38.646Z,30.08
2023-01-20T00:38:24.101Z,31.60
2023-01-20T00:41:10.537Z,28.27
2023-01-20T00:43:55.789Z,33.00
2023-01-20T00:46:41.256Z,26.10
2023-01-20T00:49:26.468Z,27.02
2023-01-20T00:52:11.976Z,33.15
2023-01-20T00:54:57.373Z,29.98
2023-01-20T00:57:42.539Z,32.63
2023-01-20T01:00:28.023Z,42.72
2023-01-20T01:03:13.126Z,35.28
2023-01-20T01:06:17.908Z,24.98
2023-01-20T01:09:03.566Z,33.05
2023-01-20T01:11:49.226Z,27.13
2023-01-20T01:14:34.789Z,31.77
2023-01-20T01:17:21.323Z,36.35
2023-01-20T01:20:07.239Z,30.73
2023-01-20T01:22:52.685Z,34.72
2023-01-20T01:25:38.274Z,31.67
2023-01-20T01:28:23.986Z,30.30
2023-01-20T01:31:10.229Z,33.13
2023-01-20T01:33:55.808Z,26.45
2023-01-20T01:36:41.197Z,32.65
2023-01-20T01:39:27.823Z,39.10
2023-01-20T01:42:18.664Z,32.58
2023-01-20T01:45:10.457Z,34.88
2023-01-20T01:48:05.956Z,37.53
2023-01-20T01:50:58.837Z,31.27
2023-01-20T01:53:54.089Z,26.20
2023-01-20T01:56:42.322Z,39.85
2023-01-20T01:59:27.981Z,34.67
2023-01-20T02:02:13.769Z,39.97
2023-01-20T02:05:02.102Z,28.88
2023-01-20T02:07:48.262Z,31.27
2023-01-20T02:10:33.732Z,29.00
2023-01-20T02:13:19.149Z,34.88
2023-01-20T02:16:07.856Z,29.55
2023-01-20T02:18:58.852Z,30.08
2023-01-20T02:22:11.791Z,33.55
2023-01-20T02:25:19.111Z,29.60
2023-01-20T02:28:16.774Z,28.50
2023-01-20T02:31:05.030Z,32.42
2023-01-20T02:34:09.786Z,27.10
2023-01-20T02:37:00.348Z,31.13
2023-01-20T02:40:05.472Z,27.23
2023-01-20T02:43:17.702Z,22.60
2023-01-20T02:49:16.484Z,26.83
2023-01-20T02:52:15.473Z,25.30
2023-01-20T02:55:06.691Z,28.92
2023-01-20T02:57:59.559Z,25.70
2023-01-20T03:00:55.956Z,24.58
2023-01-20T03:03:46.766Z,18.90
2023-01-20T03:06:38.130Z,19.48
2023-01-20T03:09:41.009Z,26.33
2023-01-20T03:12:38.363Z,23.77
2023-01-20T03:15:37.989Z,18.70
2023-01-20T03:18:23.833Z,19.17
2023-01-20T03:21:10.500Z,19.55
2023-01-20T03:24:01.598Z,22.10
2023-01-20T03:26:47.274Z,19.70
2023-01-20T03:29:32.839Z,21.45
2023-01-20T03:32:22.763Z,19.13
2023-01-20T03:35:08.972Z,18.80
2023-01-20T03:37:54.284Z,16.30
2023-01-20T03:40:53.729Z,18.10
2023-01-20T03:44:08.585Z,15.80
2023-01-20T03:47:31.601Z,21.42
2023-01-20T03:50:45.023Z,18.35
2023-01-20T03:53:45.580Z,24.08
2023-01-20T03:56:47.141Z,17.48
2023-01-20T03:59:39.064Z,16.10
2023-01-20T04:02:28.206Z,20.48
2023-01-20T04:05:14.872Z,19.45
2023-01-20T04:08:03.901Z,16.30
2023-01-20T04:10:51.822Z,18.58
2023-01-20T04:13:37.496Z,14.35
2023-01-20T04:16:25.450Z,14.23
2023-01-20T04:19:10.828Z,17.35
2023-01-20T04:22:03.593Z,12.05
2023-01-20T04:25:08.362Z,15.85
2023-01-20T04:27:54.052Z,18.33
2023-01-20T04:30:39.475Z,15.45
2023-01-20T04:33:25.002Z,15.60
2023-01-20T04:36:10.759Z,20.27
2023-01-20T04:38:56.366Z,11.38
2023-01-20T04:41:41.640Z,16.42
2023-01-20T04:44:27.033Z,11.18
2023-01-20T04:47:12.393Z,12.48
2023-01-20T04:49:57.609Z,12.43
2023-01-20T04:52:43.919Z,12.93
2023-01-20T04:55:29.447Z,13.68
2023-01-20T04:58:14.869Z,13.85
2023-01-20T05:01:02.627Z,10.18
2023-01-20T05:03:48.031Z,10.95
2023-01-20T05:06:33.657Z,16.45
2023-01-20T05:09:19.349Z,12.15
2023-01-20T05:12:05.554Z,15.18
2023-01-20T05:14:50.950Z,8.38
2023-01-20T05:17:36.296Z,10.80
2023-01-20T05:20:21.775Z,14.80
2023-01-20T05:23:07.180Z,8.88
2023-01-20T05:25:53.864Z,9.57
2023-01-20T05:28:39.072Z,12.27
2023-01-20T05:31:24.465Z,10.90
2023-01-20T05:34:11.273Z,16.48
2023-01-20T05:36:56.493Z,9.73
2023-01-20T05:39:41.833Z,10.55
2023-01-20T05:42:27.172Z,13.20
2023-01-20T05:45:12.445Z,10.05
2023-01-20T05:47:59.705Z,7.63
2023-01-20T05:50:45.147Z,11.48
2023-01-20T05:53:30.721Z,18.73
2023-01-20T05:56:16.342Z,15.45
2023-01-20T05:59:02.162Z,10.95
2023-01-20T06:01:47.842Z,10.48
2023-01-20T06:04:33.110Z,8.30
2023-01-20T06:07:18.414Z,9.15
2023-01-20T06:10:04.104Z,8.80
2023-01-20T06:12:55.425Z,16.10
2023-01-20T06:15:41.036Z,11.40
2023-01-20T06:18:26.467Z,13.90
2023-01-20T06:21:12.429Z,8.27
2023-01-20T06:23:58.067Z,7.93
2023-01-20T06:26:43.500Z,9.77
2023-01-20T06:29:28.803Z,11.27
2023-01-20T06:32:14.223Z,7.18
2023-01-20T06:34:59.511Z,9.30
2023-01-20T06:37:44.844Z,8.77
2023-01-20T06:40:30.264Z,6.70
2023-01-20T06:43:15.552Z,7.68
2023-01-20T06:46:02.684Z,10.82
2023-01-20T06:48:49.867Z,8.82
2023-01-20T06:51:35.487Z,6.20
2023-01-20T06:54:21.120Z,10.85
2023-01-20T06:57:06.621Z,8.43
2023-01-20T06:59:52.033Z,17.33
2023-01-20T07:02:37.380Z,5.97
2023-01-20T07:05:22.727Z,6.20
2023-01-20T07:08:07.994Z,7.88
2023-01-20T07:10:53.288Z,8.50
2023-01-20T07:13:38.678Z,5.45
2023-01-20T07:16:24.745Z,6.38
2023-01-20T07:19:11.425Z,8.13
2023-01-20T07:21:56.931Z,8.23
2023-01-20T07:24:42.094Z,6.95
2023-01-20T07:27:27.402Z,6.72
2023-01-20T07:30:12.917Z,7.38
2023-01-20T07:32:58.542Z,6.50
2023-01-20T07:35:44.123Z,11.00
2023-01-20T07:38:30.121Z,9.35
2023-01-20T07:41:18.203Z,12.10
2023-01-20T07:44:03.665Z,9.60
2023-01-20T07:46:51.666Z,13.70
2023-01-20T07:49:37.041Z,10.80
2023-01-20T07:52:22.453Z,8.55
2023-01-20T07:55:08.051Z,9.43
2023-01-20T07:57:53.707Z,10.23
2023-01-20T08:00:38.951Z,12.32
2023-01-20T08:03:27.370Z,10.13
2023-01-20T08:06:16.130Z,9.68
2023-01-20T08:09:02.867Z,12.73
2023-01-20T08:11:48.341Z,10.88
2023-01-20T08:14:34.427Z,11.82
2023-01-20T08:17:21.686Z,10.98
2023-01-20T08:20:08.185Z,18.33
2023-01-20T08:22:53.591Z,14.98
2023-01-20T08:25:38.882Z,22.10
2023-01-20T08:28:24.357Z,35.65
2023-01-20T08:31:16.357Z,21.90
2023-01-20T08:34:02.981Z,41.90
2023-01-20T08:36:50.169Z,24.60
2023-01-20T08:39:35.476Z,30.00
2023-01-20T08:42:20.826Z,33.22
2023-01-20T08:45:07.939Z,19.88
2023-01-20T08:47:53.684Z,11.93
2023-01-20T08:50:39.409Z,23.92
2023-01-20T08:53:25.877Z,13.50
2023-01-20T08:56:13.220Z,13.13
2023-01-20T08:58:59.023Z,14.07
2023-01-20T09:01:45.330Z,16.08
2023-01-20T09:04:31.119Z,18.27
2023-01-20T09:07:18.313Z,16.08
2023-01-20T09:10:04.924Z,13.13
2023-01-20T09:12:50.531Z,13.18
2023-01-20T09:15:35.868Z,13.32
2023-01-20T09:18:21.295Z,19.33
2023-01-20T09:21:07.137Z,23.25
2023-01-20T09:23:52.488Z,18.02
2023-01-20T09:26:40.723Z,21.45
2023-01-20T09:29:26.258Z,16.95
2023-01-20T09:32:13.312Z,18.58
2023-01-20T09:34:58.990Z,17.75
2023-01-20T09:38:02.732Z,28.73
2023-01-20T09:41:37.526Z,22.83
2023-01-20T09:44:42.284Z,8.15
2023-01-20T09:47:31.488Z,16.85
2023-01-20T09:50:41.800Z,23.88
2023-01-20T09:53:48.763Z,19.88
2023-01-20T09:56:41.438Z,18.50
2023-01-20T09:59:41.296Z,20.95
2023-01-20T10:02:33.879Z,18.02
2023-01-20T10:05:33.005Z,16.77
2023-01-20T10:08:30.119Z,21.70
2023-01-20T10:11:19.750Z,25.30
2023-01-20T10:14:23.757Z,25.15
2023-01-20T10:17:27.966Z,22.33
2023-01-20T10:20:21.981Z,30.20
2023-01-20T10:23:26.885Z,23.95
2023-01-20T10:26:18.854Z,45.58
2023-01-20T10:29:13.636Z,54.33
2023-01-20T10:32:01.204Z,56.47
2023-01-20T10:34:48.460Z,42.50
2023-01-20T10:37:36.213Z,41.45
2023-01-20T10:40:42.216Z,28.70
2023-01-20T10:43:27.892Z,46.35
2023-01-20T10:46:41.150Z,26.17
2023-01-20T10:49:57.588Z,27.88
2023-01-20T10:52:55.652Z,14.02
2023-01-20T10:55:47.063Z,20.35
2023-01-20T10:58:35.835Z,16.83
2023-01-20T11:01:21.680Z,15.55
2023-01-20T11:04:18.438Z,6.82
2023-01-20T11:07:08.459Z,14.60
2023-01-20T11:09:54.530Z,10.02
2023-01-20T11:12:42.980Z,12.65
2023-01-20T11:15:34.368Z,5.28
2023-01-20T11:18:23.032Z,8.50
2023-01-20T11:21:24.272Z,9.80
2023-01-20T11:24:43.357Z,5.32
2023-01-20T11:27:35.665Z,4.40
2023-01-20T11:30:27.515Z,10.48
2023-01-20T11:33:22.852Z,14.98
2023-01-20T11:36:23.928Z,7.35
2023-01-20T11:39:26.512Z,8.87
2023-01-20T11:42:38.364Z,9.35
2023-01-20T11:45:26.540Z,9.53
2023-01-20T11:48:16.438Z,7.05
2023-01-20T11:51:03.272Z,5.55
2023-01-20T11:53:49.024Z,4.38
2023-01-20T11:56:45.871Z,4.22
2023-01-20T11:59:33.225Z,7.72
2023-01-20T12:02:23.631Z,3.25
2023-01-20T12:05:27.128Z,7.05
2023-01-20T12:08:21.470Z,10.40
2023-01-20T12:11:08.382Z,7.88
2023-01-20T12:14:23.559Z,5.63
2023-01-20T12:17:08.989Z,6.95
2023-01-20T12:20:12.086Z,6.03
2023-01-20T12:23:21.487Z,5.50
2023-01-20T12:26:10.026Z,2.90
2023-01-20T12:29:04.718Z,4.10
2023-01-20T12:31:50.663Z,5.88
2023-01-20T12:34:35.981Z,11.93
2023-01-20T12:37:46.823Z,4.75
2023-01-20T12:40:35.144Z,2.33
2023-01-20T12:43:48.397Z,2.08
2023-01-20T12:47:00.587Z,0.98
2023-01-20T12:50:09.772Z,7.78
2023-01-20T12:53:15.984Z,2.80
2023-01-20T12:56:08.708Z,5.15
2023-01-20T12:59:08.137Z,6.65
2023-01-20T13:02:05.796Z,1.52
2023-01-20T13:05:06.944Z,4.53
2023-01-20T13:08:01.992Z,4.72
2023-01-20T13:10:56.404Z,2.83
2023-01-20T13:14:07.952Z,2.80
2023-01-20T13:17:21.574Z,1.02
2023-01-20T13:20:21.039Z,1.98
2023-01-20T13:23:07.349Z,9.88
2023-01-20T13:25:53.805Z,2.92
2023-01-20T13:28:51.459Z,4.78
2023-01-20T13:31:37.023Z,5.55
2023-01-20T13:34:32.162Z,4.65
2023-01-20T13:37:24.699Z,9.15
2023-01-20T13:40:38.240Z,5.45
2023-01-20T13:43:24.052Z,13.05
2023-01-20T13:46:09.384Z,7.57
2023-01-20T13:49:20.646Z,8.52
2023-01-20T13:52:06.133Z,28.65
2023-01-20T13:54:51.504Z,34.35
2023-01-20T13:57:37.326Z,26.95
2023-01-20T14:00:23.114Z,29.65
2023-01-20T14:03:24.696Z,29.17
2023-01-20T14:06:11.427Z,17.88
2023-01-20T14:08:56.981Z,17.20
2023-01-20T14:11:50.082Z,7.45
2023-01-20T14:14:42.189Z,10.98
2023-01-20T14:17:27.751Z,8.45
2023-01-20T14:20:23.621Z,8.70
2023-01-20T14:23:34.013Z,9.23
2023-01-20T14:26:29.141Z,2.40
2023-01-20T14:29:20.253Z,5.07
2023-01-20T14:32:21.960Z,2.95
2023-01-20T14:35:24.350Z,5.03
2023-01-20T14:38:17.527Z,3.25
2023-01-20T14:41:02.928Z,5.35
2023-01-20T14:43:48.257Z,4.28
2023-01-20T14:46:36.308Z,4.38
2023-01-20T14:49:26.159Z,8.68
2023-01-20T14:52:31.270Z,4.75
2023-01-20T14:55:31.096Z,9.23
2023-01-20T14:58:18.405Z,16.50
2023-01-20T15:01:06.390Z,7.60
2023-01-20T15:04:00.935Z,3.25
2023-01-20T15:06:56.058Z,10.50
2023-01-20T15:09:56.634Z,4.47
2023-01-20T15:12:48.363Z,4.43
2023-01-20T15:15:33.742Z,5.18
2023-01-20T15:18:19.675Z,6.25
2023-01-20T15:21:20.701Z,9.48
2023-01-20T15:24:15.355Z,16.08
2023-01-20T15:27:02.714Z,34.90
2023-01-20T15:30:15.837Z,25.08
2023-01-20T15:33:01.806Z,18.17
2023-01-20T15:35:52.851Z,16.17
2023-01-20T15:38:38.582Z,13.13
2023-01-20T15:41:24.482Z,10.60
2023-01-20T15:44:09.837Z,15.07
2023-01-20T15:46:57.685Z,16.58
2023-01-20T15:49:43.442Z,19.48
2023-01-20T15:52:28.868Z,23.77
2023-01-20T15:55:16.958Z,20.50
2023-01-20T15:58:03.079Z,18.23
2023-01-20T16:00:48.609Z,27.40
2023-01-20T16:03:35.593Z,9.68
2023-01-20T16:06:25.181Z,10.50
2023-01-20T16:09:25.897Z,13.93
2023-01-20T16:12:16.483Z,15.07
2023-01-20T16:15:02.218Z,11.57
2023-01-20T16:17:47.859Z,10.85
2023-01-20T16:20:34.931Z,13.88
2023-01-20T16:23:20.715Z,18.27
2023-01-20T16:26:22.564Z,17.15
2023-01-20T16:29:09.528Z,17.67
2023-01-20T16:31:54.928Z,13.55
2023-01-20T16:34:40.249Z,17.65
2023-01-20T16:37:25.923Z,19.70
2023-01-20T16:40:17.913Z,22.40
2023-01-20T16:43:03.529Z,19.27
2023-01-20T16:45:54.621Z,18.80
2023-01-20T16:48:40.605Z,22.50
2023-01-20T16:51:28.252Z,15.35
2023-01-20T16:54:13.630Z,17.77
2023-01-20T16:56:59.056Z,10.15
2023-01-20T16:59:44.580Z,12.15
2023-01-20T17:02:30.411Z,12.68
2023-01-20T17:05:15.919Z,18.20
2023-01-20T17:08:02.504Z,16.15
2023-01-20T17:10:48.256Z,13.80
2023-01-20T17:13:33.674Z,17.15
2023-01-20T17:16:20.270Z,15.05
2023-01-20T17:19:06.170Z,14.68
2023-01-20T17:21:51.731Z,48.55
2023-01-20T17:24:39.324Z,45.80
2023-01-20T17:27:25.128Z,40.53
2023-01-20T17:30:11.109Z,40.42
2023-01-20T17:32:56.706Z,38.65
2023-01-20T17:35:43.192Z,49.70
2023-01-20T17:38:30.246Z,41.92
2023-01-20T17:41:15.791Z,42.38
2023-01-20T17:44:01.772Z,24.33
2023-01-20T17:46:49.169Z,28.85
2023-01-20T17:49:34.781Z,25.83
2023-01-20T17:52:22.306Z,27.05
2023-01-20T17:55:08.009Z,19.77
2023-01-20T17:57:53.635Z,12.70
2023-01-20T18:00:39.609Z,12.85
2023-01-20T18:03:24.910Z,16.65
2023-01-20T18:06:12.517Z,19.10
2023-01-20T18:09:01.312Z,22.85
2023-01-20T18:11:46.912Z,17.13
2023-01-20T18:14:32.353Z,24.52
2023-01-20T18:17:17.700Z,24.63
2023-01-20T18:20:03.278Z,23.65
2023-01-20T18:22:50.360Z,30.60
2023-01-20T18:25:36.006Z,19.95
2023-01-20T18:28:21.250Z,23.27
2023-01-20T18:31:12.110Z,21.42
2023-01-20T18:34:00.150Z,23.98
2023-01-20T18:36:46.409Z,25.67
2023-01-20T18:39:32.018Z,39.33
2023-01-20T18:42:17.613Z,36.63
2023-01-20T18:45:03.077Z,32.35
2023-01-20T18:47:48.892Z,28.58
2023-01-20T18:50:34.873Z,33.85
2023-01-20T18:53:20.442Z,24.88
2023-01-20T18:56:08.765Z,25.35
2023-01-20T18:58:55.139Z,27.85
2023-01-20T19:01:41.591Z,23.70
2023-01-20T19:04:26.954Z,27.88
2023-01-20T19:07:12.351Z,26.17
2023-01-20T19:09:57.802Z,30.42
2023-01-20T19:12:43.112Z,29.70
2023-01-20T19:15:28.831Z,31.17
2023-01-20T19:18:13.972Z,31.55
2023-01-20T19:21:15.061Z,31.02
2023-01-20T19:24:05.926Z,32.00
2023-01-20T19:26:51.431Z,26.60
2023-01-20T19:29:36.862Z,32.25
2023-01-20T19:32:22.314Z,28.38
2023-01-20T19:35:08.673Z,28.98
2023-01-20T19:37:54.521Z,31.40
2023-01-20T19:40:40.080Z,35.35
2023-01-20T19:43:25.309Z,35.22
2023-01-20T19:46:13.345Z,32.88
2023-01-20T19:48:59.380Z,33.03
2023-01-20T19:51:44.790Z,39.22
2023-01-20T19:54:31.979Z,32.35
2023-01-20T19:57:17.557Z,43.17
2023-01-20T20:00:04.917Z,39.08
2023-01-20T20:02:56.879Z,41.17
2023-01-20T20:05:44.080Z,32.70
2023-01-20T20:08:29.447Z,37.85
2023-01-20T20:11:14.921Z,45.65
2023-01-20T20:14:03.088Z,48.33
2023-01-20T20:16:49.380Z,39.83
2023-01-20T20:19:35.101Z,44.65
2023-01-20T20:22:20.821Z,44.55
2023-01-20T20:25:09.863Z,48.50
2023-01-20T20:27:57.765Z,44.25
2023-01-20T20:30:43.301Z,42.03
2023-01-20T20:33:28.801Z,35.38
2023-01-20T20:36:15.242Z,41.83
2023-01-20T20:39:02.707Z,42.92
2023-01-20T20:41:48.372Z,29.65
2023-01-20T20:44:33.963Z,28.83
2023-01-20T20:47:20.324Z,22.35
2023-01-20T20:50:06.340Z,26.70
2023-01-20T20:52:52.795Z,27.52
2023-01-20T20:55:42.211Z,22.33
2023-01-20T20:58:27.535Z,24.98
2023-01-20T21:01:15.445Z,17.13
2023-01-20T21:04:03.154Z,51.17
2023-01-20T21:06:48.495Z,24.25
2023-01-20T21:09:34.977Z,35.53
2023-01-20T21:12:20.427Z,23.58
2023-01-20T21:15:06.565Z,17.00
2023-01-20T21:17:52.062Z,28.52
2023-01-20T21:20:37.341Z,19.48
2023-01-20T21:23:22.846Z,20.42
2023-01-20T21:26:12.604Z,19.42
2023-01-20T21:29:02.179Z,21.10
2023-01-20T21:31:48.072Z,20.65
2023-01-20T21:34:33.894Z,13.48
2023-01-20T21:37:20.652Z,23.90
2023-01-20T21:40:06.626Z,23.08
2023-01-20T21:42:54.518Z,20.13
2023-01-20T21:45:39.933Z,14.55
2023-01-20T21:48:43.781Z,21.30
2023-01-20T21:51:48.489Z,12.63
2023-01-20T21:54:34.735Z,16.27
2023-01-20T21:57:21.271Z,18.15
2023-01-20T22:00:08.758Z,12.88
2023-01-20T22:02:57.408Z,16.75
2023-01-20T22:05:42.798Z,15.43
2023-01-20T22:08:28.205Z,9.68
2023-01-20T22:11:13.570Z,18.27
2023-01-20T22:13:59.181Z,13.95
2023-01-20T22:16:44.790Z,14.35
2023-01-20T22:19:30.482Z,8.48
2023-01-20T22:22:16.006Z,12.75
2023-01-20T22:25:01.391Z,13.55
2023-01-20T22:27:48.288Z,9.93
2023-01-20T22:30:34.033Z,9.93
2023-01-20T22:33:19.232Z,8.65
2023-01-20T22:36:05.196Z,6.10
2023-01-20T22:38:52.208Z,8.05
2023-01-20T22:41:37.696Z,13.05
2023-01-20T22:44:22.931Z,7.85
2023-01-20T22:47:10.952Z,12.50
2023-01-20T22:49:56.976Z,11.07
2023-01-20T22:52:42.456Z,10.32
2023-01-20T22:55:27.695Z,13.05
2023-01-20T22:58:13.012Z,12.10
2023-01-20T23:00:59.073Z,11.52
2023-01-20T23:03:45.618Z,8.30
2023-01-20T23:06:33.192Z,3.25
2023-01-20T23:09:19.058Z,10.88
2023-01-20T23:12:04.996Z,12.48
2023-01-20T23:14:59.675Z,9.25
2023-01-20T23:17:46.484Z,4.90
2023-01-20T23:20:31.838Z,8.05
2023-01-20T23:23:17.564Z,7.57
2023-01-20T23:26:05.577Z,7.43
2023-01-20T23:28:53.700Z,8.15
2023-01-20T23:31:39.282Z,6.68
2023-01-20T23:34:24.622Z,7.00
2023-01-20T23:37:10.444Z,11.57
2023-01-20T23:39:55.854Z,9.60
2023-01-20T23:42:41.577Z,7.85
2023-01-20T23:45:28.856Z,8.10
2023-01-20T23:48:14.471Z,6.75
2023-01-20T23:51:00.902Z,8.65
2023-01-20T23:53:46.547Z,6.80
2023-01-20T23:56:32.056Z,13.30
2023-01-20T23:59:17.414Z,3.40
